createdAt,value
2023-04-18T00:01:15.230Z,101717.06
2023-04-18T00:03:59.880Z,101714.41
2023-04-18T00:06:32.721Z,101716.03
2023-04-18T00:09:11.354Z,101716.91
2023-04-18T00:11:42.274Z,101705.53
2023-04-18T00:14:18.610Z,101710.72
2023-04-18T00:16:55.875Z,101714.16
2023-04-18T00:19:26.430Z,101705.41
2023-04-18T00:22:09.677Z,101704.50
2023-04-18T00:24:48.337Z,101704.44
2023-04-18T00:27:18.589Z,101700.91
2023-04-18T00:30:01.933Z,101704.28
2023-04-18T00:32:39.720Z,101697.28
2023-04-18T00:35:10.800Z,101703.31
2023-04-18T00:37:46.651Z,101704.06
2023-04-18T00:40:20.849Z,101701.41
2023-04-18T00:42:55.657Z,101700.53
2023-04-18T00:45:31.669Z,101695.28
2023-04-18T00:48:04.559Z,101697.84
2023-04-18T00:50:33.533Z,101698.69
2023-04-18T00:53:07.609Z,101705.53
2023-04-18T00:55:58.245Z,101699.31
2023-04-18T00:58:31.556Z,101702.66
2023-04-18T01:01:02.522Z,101705.13
2023-04-18T01:03:45.263Z,101712.91
2023-04-18T01:06:20.891Z,101703.16
2023-04-18T01:08:57.255Z,101702.31
2023-04-18T01:11:36.469Z,101692.84
2023-04-18T01:14:09.589Z,101696.34
2023-04-18T01:17:02.297Z,101692.84
2023-04-18T01:19:34.640Z,101695.41
2023-04-18T01:22:10.361Z,101689.19
2023-04-18T01:24:44.131Z,101690.81
2023-04-18T01:27:16.184Z,101686.41
2023-04-18T01:29:50.410Z,101693.28
2023-04-18T01:32:28.498Z,101687.16
2023-04-18T01:34:58.520Z,101683.31
2023-04-18T01:37:37.550Z,101681.59
2023-04-18T01:40:13.814Z,101678.03
2023-04-18T01:42:53.276Z,101689.31
2023-04-18T01:45:32.362Z,101678.00
2023-04-18T01:48:12.031Z,101679.56
2023-04-18T01:50:46.649Z,101678.69
2023-04-18T01:53:19.532Z,101678.63
2023-04-18T01:55:53.957Z,101685.34
2023-04-18T01:58:32.849Z,101684.44
2023-04-18T02:01:29.451Z,101682.56
2023-04-18T02:04:24.439Z,101679.91
2023-04-18T02:07:00.081Z,101677.22
2023-04-18T02:09:30.952Z,101689.22
2023-04-18T02:12:06.145Z,101691.75
2023-04-18T02:14:55.673Z,101681.38
2023-04-18T02:17:32.037Z,101685.72
2023-04-18T02:20:31.712Z,101689.09
2023-04-18T02:23:13.855Z,101683.84
2023-04-18T02:25:50.139Z,101694.09
2023-04-18T02:28:21.714Z,101691.50
2023-04-18T02:31:05.757Z,101687.19
2023-04-18T02:33:40.685Z,101684.47
2023-04-18T02:36:22.963Z,101678.41
2023-04-18T02:38:56.197Z,101673.00
2023-04-18T02:41:37.147Z,101682.59
2023-04-18T02:44:09.480Z,101687.59
2023-04-18T02:46:41.348Z,101681.53
2023-04-18T02:49:18.363Z,101685.78
2023-04-18T02:51:50.396Z,101683.97
2023-04-18T02:54:22.743Z,101687.31
2023-04-18T02:57:04.898Z,101683.00
2023-04-18T03:00:00.532Z,101681.13
2023-04-18T03:02:28.801Z,101680.19
2023-04-18T03:05:04.344Z,101679.31
2023-04-18T03:07:36.861Z,101678.47
2023-04-18T03:10:14.275Z,101679.22
2023-04-18T03:12:53.678Z,101671.41
2023-04-18T03:15:24.102Z,101681.69
2023-04-18T03:18:03.981Z,101686.84
2023-04-18T03:20:38.393Z,101686.66
2023-04-18T03:23:20.327Z,101694.41
2023-04-18T03:26:04.845Z,101691.88
2023-04-18T03:28:39.936Z,101696.25
2023-04-18T03:31:12.514Z,101699.63
2023-04-18T03:33:49.131Z,101691.88
2023-04-18T03:36:28.754Z,101684.13
2023-04-18T03:39:06.453Z,101693.72
2023-04-18T03:41:41.744Z,101694.72
2023-04-18T03:44:19.086Z,101691.38
2023-04-18T03:46:51.633Z,101687.97
2023-04-18T03:49:28.667Z,101694.09
2023-04-18T03:52:03.627Z,101696.63
2023-04-18T03:54:43.004Z,101694.03
2023-04-18T03:57:14.848Z,101697.50
2023-04-18T03:59:51.285Z,101698.38
2023-04-18T04:02:25.370Z,101704.47
2023-04-18T04:04:53.853Z,101702.63
2023-04-18T04:07:27.274Z,101702.63
2023-04-18T04:09:59.503Z,101707.81
2023-04-18T04:12:30.241Z,101710.34
2023-04-18T04:15:04.178Z,101714.69
2023-04-18T04:17:47.134Z,101706.94
2023-04-18T04:20:32.978Z,101715.66
2023-04-18T04:23:16.652Z,101714.78
2023-04-18T04:25:58.743Z,101720.84
2023-04-18T04:28:50.886Z,101711.38
2023-04-18T04:31:27.149Z,101724.66
2023-04-18T04:37:26.488Z,101723.66
2023-04-18T04:40:10.285Z,101724.78
2023-04-18T04:43:12.831Z,101729.22
2023-04-18T04:45:56.320Z,101732.72
2023-04-18T04:48:34.523Z,101733.69
2023-04-18T04:51:18.911Z,101728.56
2023-04-18T04:53:55.707Z,101736.34
2023-04-18T04:56:30.583Z,101739.91
2023-04-18T04:59:09.000Z,101739.03
2023-04-18T05:02:00.767Z,101746.88
2023-04-18T05:04:45.396Z,101748.69
2023-04-18T05:07:26.916Z,101756.47
2023-04-18T05:09:57.974Z,101751.34
2023-04-18T05:12:53.478Z,101749.72
2023-04-18T05:15:40.105Z,101763.69
2023-04-18T05:18:18.489Z,101749.91
2023-04-18T05:20:51.757Z,101751.84
2023-04-18T05:23:43.688Z,101752.13
2023-04-18T05:26:22.986Z,101761.94
2023-04-18T05:28:58.824Z,101764.88
2023-04-18T05:31:36.945Z,101775.31
2023-04-18T05:34:08.975Z,101772.66
2023-04-18T05:36:57.986Z,101780.59
2023-04-18T05:39:31.337Z,101781.53
2023-04-18T05:42:05.633Z,101772.16
2023-04-18T05:45:19.725Z,101776.91
2023-04-18T05:47:47.959Z,101783.75
2023-04-18T05:50:24.756Z,101779.78
2023-04-18T05:55:57.355Z,101782.03
2023-04-18T05:58:25.418Z,101775.91
2023-04-18T06:01:03.173Z,101774.06
2023-04-18T06:07:19.894Z,101784.81
2023-04-18T06:13:03.452Z,101786.75
2023-04-18T06:15:38.878Z,101788.03
2023-04-18T06:21:16.000Z,101786.41
2023-04-18T06:23:51.704Z,101783.91
2023-04-18T06:26:27.606Z,101792.53
2023-04-18T06:29:00.843Z,101790.88
2023-04-18T06:32:04.804Z,101779.53
2023-04-18T06:34:48.016Z,101795.22
2023-04-18T06:37:42.093Z,101803.03
2023-04-18T06:43:37.904Z,101788.28
2023-04-18T06:46:28.012Z,101788.28
2023-04-18T06:52:01.442Z,101799.59
2023-04-18T06:54:35.980Z,101795.19
2023-04-18T06:57:05.581Z,101790.00
2023-04-18T06:59:37.447Z,101798.63
2023-04-18T07:02:18.239Z,101796.88
2023-04-18T07:04:53.643Z,101791.41
2023-04-18T07:07:32.040Z,101804.34
2023-04-18T07:10:18.511Z,101805.47
2023-04-18T07:15:56.455Z,101815.25
2023-04-18T07:18:38.284Z,101812.53
2023-04-18T07:21:11.598Z,101822.84
2023-04-18T07:23:47.819Z,101815.97
2023-04-18T07:26:40.184Z,101822.13
2023-04-18T07:29:33.868Z,101828.38
2023-04-18T07:32:13.794Z,101826.59
2023-04-18T07:35:00.362Z,101824.75
2023-04-18T07:37:47.629Z,101828.38
2023-04-18T07:40:21.993Z,101831.78
2023-04-18T07:43:05.812Z,101826.66
2023-04-18T07:45:45.846Z,101827.50
2023-04-18T07:48:34.190Z,101826.63
2023-04-18T07:51:21.821Z,101826.66
2023-04-18T07:54:16.943Z,101833.63
2023-04-18T07:57:09.055Z,101827.50
2023-04-18T07:59:57.955Z,101820.03
2023-04-18T08:02:42.310Z,101827.59
2023-04-18T08:05:17.855Z,101828.47
2023-04-18T08:08:09.754Z,101821.13
2023-04-18T08:10:40.068Z,101826.78
2023-04-18T08:13:08.389Z,101829.81
2023-04-18T08:15:36.386Z,101836.94
2023-04-18T08:18:04.466Z,101829.09
2023-04-18T08:20:32.308Z,101824.63
2023-04-18T08:23:08.494Z,101833.41
2023-04-18T08:25:38.298Z,101835.84
2023-04-18T08:28:06.562Z,101823.78
2023-04-18T08:30:34.404Z,101827.34
2023-04-18T08:33:02.496Z,101847.53
2023-04-18T08:35:30.606Z,101837.94
2023-04-18T08:37:58.463Z,101840.53
2023-04-18T08:40:27.736Z,101848.41
2023-04-18T08:42:58.382Z,101838.81
2023-04-18T08:45:26.317Z,101837.09
2023-04-18T08:47:55.989Z,101835.34
2023-04-18T08:50:24.194Z,101830.06
2023-04-18T08:52:53.990Z,101835.28
2023-04-18T08:55:22.354Z,101839.66
2023-04-18T08:57:54.188Z,101839.47
2023-04-18T09:00:22.782Z,101842.91
2023-04-18T09:02:55.104Z,101841.25
2023-04-18T09:05:24.869Z,101836.94
2023-04-18T09:07:54.890Z,101835.34
2023-04-18T09:10:28.739Z,101832.66
2023-04-18T09:12:59.586Z,101840.50
2023-04-18T09:15:29.189Z,101834.44
2023-04-18T09:17:58.949Z,101830.84
2023-04-18T09:20:34.999Z,101836.06
2023-04-18T09:23:04.702Z,101834.34
2023-04-18T09:25:35.814Z,101834.22
2023-04-18T09:28:06.134Z,101837.47
2023-04-18T09:30:37.703Z,101833.09
2023-04-18T09:33:07.463Z,101834.25
2023-04-18T09:35:35.887Z,101833.97
2023-04-18T09:38:04.032Z,101820.34
2023-04-18T09:40:32.351Z,101822.41
2023-04-18T09:43:00.664Z,101821.06
2023-04-18T09:45:29.890Z,101825.03
2023-04-18T09:47:58.545Z,101816.63
2023-04-18T09:50:26.471Z,101813.84
2023-04-18T09:52:56.055Z,101817.84
2023-04-18T09:55:24.222Z,101810.94
2023-04-18T09:57:54.658Z,101821.50
2023-04-18T10:00:26.542Z,101812.53
2023-04-18T10:02:59.111Z,101819.88
2023-04-18T10:05:28.752Z,101812.53
2023-04-18T10:07:56.904Z,101810.13
2023-04-18T10:10:25.318Z,101799.09
2023-04-18T10:12:56.347Z,101802.19
2023-04-18T10:15:26.304Z,101805.47
2023-04-18T10:18:04.282Z,101801.16
2023-04-18T10:20:36.073Z,101797.06
2023-04-18T10:23:42.698Z,101804.03
2023-04-18T10:26:11.831Z,101801.19
2023-04-18T10:28:52.866Z,101799.78
2023-04-18T10:31:22.186Z,101795.50
2023-04-18T10:34:03.195Z,101797.03
2023-04-18T10:36:33.290Z,101797.84
2023-04-18T10:39:03.036Z,101793.75
2023-04-18T10:41:32.337Z,101796.88
2023-04-18T10:44:22.477Z,101786.13
2023-04-18T10:47:23.685Z,101782.91
2023-04-18T10:49:56.540Z,101780.34
2023-04-18T10:52:26.321Z,101775.72
2023-04-18T10:54:59.474Z,101771.63
2023-04-18T10:57:39.020Z,101777.47
2023-04-18T11:00:11.032Z,101782.94
2023-04-18T11:02:39.491Z,101777.91
2023-04-18T11:05:09.100Z,101775.94
2023-04-18T11:07:39.758Z,101768.41
2023-04-18T11:10:09.634Z,101771.69
2023-04-18T11:12:39.179Z,101763.06
2023-04-18T11:15:12.316Z,101761.09
2023-04-18T11:17:41.348Z,101757.81
2023-04-18T11:20:11.420Z,101761.69
2023-04-18T11:22:49.243Z,101762.56
2023-04-18T11:25:18.047Z,101756.03
2023-04-18T11:27:47.412Z,101749.78
2023-04-18T11:30:16.417Z,101770.94
2023-04-18T11:32:44.683Z,101757.84
2023-04-18T11:35:14.125Z,101754.06
2023-04-18T11:37:43.007Z,101749.41
2023-04-18T11:40:13.766Z,101755.13
2023-04-18T11:42:42.447Z,101760.69
2023-04-18T11:45:12.271Z,101754.03
2023-04-18T11:47:41.800Z,101762.25
2023-04-18T11:50:11.506Z,101754.63
2023-04-18T11:52:42.322Z,101758.91
2023-04-18T11:55:17.834Z,101760.13
2023-04-18T11:57:53.182Z,101759.94
2023-04-18T12:00:32.430Z,101760.44
2023-04-18T12:03:01.740Z,101755.06
2023-04-18T12:05:31.777Z,101760.28
2023-04-18T12:08:07.399Z,101749.88
2023-04-18T12:10:36.978Z,101749.63
2023-04-18T12:13:08.708Z,101763.47
2023-04-18T12:15:40.311Z,101757.00
2023-04-18T12:18:09.443Z,101760.06
2023-04-18T12:20:38.840Z,101759.69
2023-04-18T12:23:07.795Z,101757.28
2023-04-18T12:25:37.476Z,101752.75
2023-04-18T12:28:15.713Z,101746.84
2023-04-18T12:30:43.668Z,101758.94
2023-04-18T12:33:12.498Z,101755.34
2023-04-18T12:35:40.420Z,101749.72
2023-04-18T12:38:08.231Z,101746.81
2023-04-18T12:40:40.201Z,101755.25
2023-04-18T12:43:08.906Z,101747.47
2023-04-18T12:45:36.702Z,101749.31
2023-04-18T12:48:04.812Z,101752.53
2023-04-18T12:50:32.945Z,101754.38
2023-04-18T12:53:02.304Z,101753.50
2023-04-18T12:55:30.669Z,101746.91
2023-04-18T12:58:00.738Z,101751.78
2023-04-18T13:00:31.188Z,101742.13
2023-04-18T13:02:59.873Z,101742.16
2023-04-18T13:05:32.845Z,101738.22
2023-04-18T13:08:15.070Z,101739.72
2023-04-18T13:10:44.474Z,101739.28
2023-04-18T13:13:13.801Z,101731.50
2023-04-18T13:15:41.709Z,101731.88
2023-04-18T13:18:09.650Z,101738.56
2023-04-18T13:20:37.615Z,101735.28
2023-04-18T13:23:05.494Z,101727.44
2023-04-18T13:25:33.357Z,101735.63
2023-04-18T13:28:01.335Z,101738.22
2023-04-18T13:30:31.683Z,101732.84
2023-04-18T13:32:59.528Z,101732.66
2023-04-18T13:35:27.316Z,101736.44
2023-04-18T13:37:55.110Z,101728.19
2023-04-18T13:40:23.101Z,101731.81
2023-04-18T13:42:51.424Z,101734.16
2023-04-18T13:45:20.495Z,101732.34
2023-04-18T13:47:49.747Z,101733.03
2023-04-18T13:50:17.621Z,101733.34
2023-04-18T13:52:46.837Z,101737.00
2023-04-18T13:55:16.057Z,101730.63
2023-04-18T13:57:43.874Z,101736.44
2023-04-18T14:00:14.171Z,101725.03
2023-04-18T14:02:42.617Z,101721.38
2023-04-18T14:05:12.036Z,101732.34
2023-04-18T14:07:39.895Z,101737.47
2023-04-18T14:10:08.537Z,101731.16
2023-04-18T14:12:36.366Z,101736.66
2023-04-18T14:15:04.426Z,101740.44
2023-04-18T14:17:32.338Z,101734.25
2023-04-18T14:20:00.178Z,101735.13
2023-04-18T14:22:29.429Z,101741.66
2023-04-18T14:24:57.197Z,101740.75
2023-04-18T14:27:26.175Z,101722.88
2023-04-18T14:29:54.049Z,101731.09
2023-04-18T14:32:21.985Z,101728.41
2023-04-18T14:34:49.797Z,101735.50
2023-04-18T14:37:17.839Z,101737.19
2023-04-18T14:39:47.169Z,101732.81
2023-04-18T14:42:14.915Z,101729.84
2023-04-18T14:44:42.738Z,101719.84
2023-04-18T14:47:10.919Z,101728.69
2023-04-18T14:49:38.925Z,101726.03
2023-04-18T14:52:06.785Z,101728.69
2023-04-18T14:54:34.566Z,101718.50
2023-04-18T14:57:03.770Z,101736.00
2023-04-18T14:59:31.549Z,101739.56
2023-04-18T15:01:59.449Z,101737.06
2023-04-18T15:04:27.600Z,101738.81
2023-04-18T15:06:55.677Z,101740.91
2023-04-18T15:09:23.459Z,101736.25
2023-04-18T15:11:51.525Z,101725.31
2023-04-18T15:14:28.435Z,101735.16
2023-04-18T15:16:56.614Z,101733.97
2023-04-18T15:19:24.566Z,101721.94
2023-04-18T15:21:52.695Z,101734.19
2023-04-18T15:24:20.525Z,101734.50
2023-04-18T15:26:48.524Z,101737.00
2023-04-18T15:29:16.405Z,101729.03
2023-04-18T15:31:45.855Z,101719.28
2023-04-18T15:34:14.132Z,101722.31
2023-04-18T15:36:42.469Z,101726.94
2023-04-18T15:39:10.624Z,101718.56
2023-04-18T15:41:39.212Z,101713.03
2023-04-18T15:44:08.123Z,101721.44
2023-04-18T15:46:36.109Z,101710.31
2023-04-18T15:49:05.375Z,101706.25
2023-04-18T15:51:33.207Z,101701.78
2023-04-18T15:54:01.158Z,101698.88
2023-04-18T15:56:29.703Z,101697.09
2023-04-18T15:59:00.288Z,101700.78
2023-04-18T16:01:28.249Z,101687.19
2023-04-18T16:03:56.128Z,101696.66
2023-04-18T16:06:26.587Z,101692.47
2023-04-18T16:08:54.394Z,101690.75
2023-04-18T16:11:26.006Z,101691.53
2023-04-18T16:13:56.594Z,101699.97
2023-04-18T16:16:24.850Z,101692.88
2023-04-18T16:18:52.665Z,101691.84
2023-04-18T16:21:20.532Z,101693.56
2023-04-18T16:23:49.845Z,101695.28
2023-04-18T16:26:17.712Z,101698.50
2023-04-18T16:28:45.576Z,101694.16
2023-04-18T16:31:15.307Z,101697.59
2023-04-18T16:33:45.252Z,101696.59
2023-04-18T16:36:13.199Z,101696.69
2023-04-18T16:38:40.959Z,101696.50
2023-04-18T16:41:10.596Z,101698.44
2023-04-18T16:43:38.391Z,101697.66
2023-04-18T16:46:06.722Z,101682.13
2023-04-18T16:48:37.650Z,101691.78
2023-04-18T16:51:06.545Z,101702.81
2023-04-18T16:53:34.521Z,101696.56
2023-04-18T16:56:03.162Z,101692.78
2023-04-18T16:58:32.451Z,101687.25
2023-04-18T17:01:02.391Z,101695.34
2023-04-18T17:03:30.492Z,101689.13
2023-04-18T17:05:58.426Z,101701.75
2023-04-18T17:08:28.558Z,101689.13
2023-04-18T17:10:56.405Z,101687.63
2023-04-18T17:13:26.888Z,101698.28
2023-04-18T17:15:56.150Z,101698.38
2023-04-18T17:18:25.283Z,101701.81
2023-04-18T17:20:55.640Z,101709.16
2023-04-18T17:23:23.560Z,101707.31
2023-04-18T17:25:51.379Z,101703.88
2023-04-18T17:28:19.404Z,101706.66
2023-04-18T17:30:47.243Z,101707.84
2023-04-18T17:33:16.416Z,101709.53
2023-04-18T17:35:44.230Z,101714.06
2023-04-18T17:38:12.589Z,101719.31
2023-04-18T17:40:40.435Z,101718.59
2023-04-18T17:43:08.237Z,101716.81
2023-04-18T17:45:36.195Z,101716.69
2023-04-18T17:48:04.355Z,101712.34
2023-04-18T17:50:36.818Z,101718.44
2023-04-18T17:53:04.889Z,101716.78
2023-04-18T17:55:32.740Z,101715.94
2023-04-18T17:58:00.630Z,101717.53
2023-04-18T18:00:28.652Z,101726.59
2023-04-18T18:02:57.033Z,101731.13
2023-04-18T18:05:25.829Z,101726.84
2023-04-18T18:07:56.233Z,101735.47
2023-04-18T18:10:24.942Z,101734.84
2023-04-18T18:12:52.841Z,101735.72
2023-04-18T18:15:21.088Z,101740.25
2023-04-18T18:17:49.497Z,101742.13
2023-04-18T18:20:18.299Z,101742.09
2023-04-18T18:22:47.225Z,101750.88
2023-04-18T18:25:16.599Z,101748.41
2023-04-18T18:27:44.456Z,101749.38
2023-04-18T18:30:12.452Z,101755.56
2023-04-18T18:32:40.308Z,101748.63
2023-04-18T18:35:08.818Z,101746.09
2023-04-18T18:37:36.651Z,101754.00
2023-04-18T18:40:07.293Z,101753.97
2023-04-18T18:42:38.161Z,101762.84
2023-04-18T18:45:07.458Z,101762.81
2023-04-18T18:47:37.506Z,101767.31
2023-04-18T18:50:07.609Z,101761.19
2023-04-18T18:52:35.513Z,101771.72
2023-04-18T18:55:03.941Z,101773.59
2023-04-18T18:57:32.213Z,101777.06
2023-04-18T19:00:01.434Z,101784.97
2023-04-18T19:02:29.490Z,101781.50
2023-04-18T19:04:57.713Z,101786.75
2023-04-18T19:07:26.122Z,101785.88
2023-04-18T19:09:55.292Z,101785.97
2023-04-18T19:12:23.189Z,101787.66
2023-04-18T19:14:51.068Z,101790.34
2023-04-18T19:17:21.919Z,101802.63
2023-04-18T19:19:49.861Z,101801.72
2023-04-18T19:22:17.961Z,101795.66
2023-04-18T19:24:46.016Z,101801.75
2023-04-18T19:27:14.000Z,101801.78
2023-04-18T19:29:41.804Z,101802.69
2023-04-18T19:32:09.844Z,101807.94
2023-04-18T19:34:39.341Z,101806.16
2023-04-18T19:37:07.235Z,101811.38
2023-04-18T19:39:35.140Z,101805.25
2023-04-18T19:42:03.865Z,101806.16
2023-04-18T19:44:32.310Z,101808.78
2023-04-18T19:47:00.118Z,101813.16
2023-04-18T19:49:27.960Z,101808.78
2023-04-18T19:51:57.126Z,101813.16
2023-04-18T19:54:25.187Z,101821.94
2023-04-18T19:56:53.177Z,101820.16
2023-04-18T19:59:21.010Z,101812.25
2023-04-18T20:01:48.930Z,101809.66
2023-04-18T20:04:17.024Z,101812.34
2023-04-18T20:06:45.125Z,101818.47
2023-04-18T20:09:16.848Z,101823.69
2023-04-18T20:11:46.446Z,101818.41
2023-04-18T20:14:14.234Z,101815.75
2023-04-18T20:16:42.818Z,101819.25
2023-04-18T20:19:12.594Z,101823.59
2023-04-18T20:21:41.041Z,101821.97
2023-04-18T20:24:10.031Z,101814.19
2023-04-18T20:26:39.254Z,101820.34
2023-04-18T20:29:07.035Z,101815.13
2023-04-18T20:31:35.046Z,101817.75
2023-04-18T20:34:02.847Z,101815.16
2023-04-18T20:36:31.037Z,101816.03
2023-04-18T20:39:02.230Z,101823.91
2023-04-18T20:41:31.966Z,101822.16
2023-04-18T20:44:05.001Z,101821.28
2023-04-18T20:46:32.989Z,101825.63
2023-04-18T20:49:00.914Z,101822.13
2023-04-18T20:51:29.677Z,101820.47
2023-04-18T20:53:57.432Z,101832.66
2023-04-18T20:56:25.498Z,101827.41
2023-04-18T20:58:53.342Z,101829.19
2023-04-18T21:01:23.004Z,101830.94
2023-04-18T21:03:51.017Z,101826.63
2023-04-18T21:06:19.115Z,101836.22
2023-04-18T21:08:47.020Z,101833.59
2023-04-18T21:11:14.921Z,101841.50
2023-04-18T21:13:42.880Z,101836.28
2023-04-18T21:16:11.260Z,101843.34
2023-04-18T21:18:40.518Z,101838.16
2023-04-18T21:21:08.911Z,101839.03
2023-04-18T21:23:42.547Z,101833.81
2023-04-18T21:26:12.607Z,101838.16
2023-04-18T21:28:57.447Z,101837.25
2023-04-18T21:31:25.991Z,101836.44
2023-04-18T21:33:55.778Z,101836.41
2023-04-18T21:36:24.468Z,101841.72
2023-04-18T21:38:53.387Z,101847.00
2023-04-18T21:41:21.427Z,101845.28
2023-04-18T21:43:49.629Z,101843.47
2023-04-18T21:46:18.312Z,101842.66
2023-04-18T21:48:47.706Z,101841.81
2023-04-18T21:51:17.846Z,101851.44
2023-04-18T21:53:45.947Z,101846.19
2023-04-18T21:56:14.056Z,101852.34
2023-04-18T21:58:42.253Z,101853.22
2023-04-18T22:01:10.316Z,101847.94
2023-04-18T22:03:38.400Z,101849.69
2023-04-18T22:06:06.529Z,101846.25
2023-04-18T22:08:36.058Z,101845.38
2023-04-18T22:11:04.692Z,101848.00
2023-04-18T22:13:33.680Z,101842.75
2023-04-18T22:16:03.327Z,101846.28
2023-04-18T22:18:34.473Z,101848.00
2023-04-18T22:21:03.304Z,101848.91
2023-04-18T22:23:32.027Z,101844.53
2023-04-18T22:26:01.340Z,101848.84
2023-04-18T22:28:29.358Z,101846.25
2023-04-18T22:30:57.553Z,101844.56
2023-04-18T22:33:25.749Z,101846.28
2023-04-18T22:35:54.248Z,101849.78
2023-04-18T22:38:22.070Z,101847.22
2023-04-18T22:40:49.878Z,101847.19
2023-04-18T22:43:22.722Z,101851.56
2023-04-18T22:45:51.152Z,101848.06
2023-04-18T22:48:19.843Z,101848.06
2023-04-18T22:50:47.666Z,101854.16
2023-04-18T22:53:16.162Z,101842.00
2023-04-18T22:55:45.314Z,101853.34
2023-04-18T22:58:13.442Z,101856.84
2023-04-18T23:00:42.748Z,101858.59
2023-04-18T23:03:10.796Z,101855.97
2023-04-18T23:05:38.780Z,101856.84
2023-04-18T23:08:07.118Z,101857.75
2023-04-18T23:10:35.578Z,101860.38
2023-04-18T23:13:03.441Z,101853.38
2023-04-18T23:15:31.575Z,101856.91
2023-04-18T23:18:00.867Z,101854.25
2023-04-18T23:20:28.989Z,101851.63
2023-04-18T23:22:57.107Z,101851.63
2023-04-18T23:25:24.904Z,101862.13
2023-04-18T23:27:52.685Z,101855.16
2023-04-18T23:30:20.561Z,101852.53
2023-04-18T23:32:48.377Z,101856.88
2023-04-18T23:35:18.184Z,101855.16
2023-04-18T23:37:46.635Z,101856.91
2023-04-18T23:40:14.496Z,101854.28
2023-04-18T23:42:42.398Z,101856.03
2023-04-18T23:45:10.776Z,101854.34
2023-04-18T23:47:38.625Z,101854.31
2023-04-18T23:50:07.714Z,101848.22
2023-04-18T23:52:38.101Z,101853.44
2023-04-18T23:55:06.623Z,101849.06
2023-04-18T23:57:34.438Z,101852.56
